KBJC/BJC METAR and TAF weather

Enter ICAO airport designator
Station Type Date Time Source
KBJC METAR 2021/09/16 21:47 UTC NOAA

KBJC 162147Z 34009KT 10SM BKN100 32/M04 A2988


Station Type Date Time Source
KBJC Decoded METAR 2021/09/16 21:47 UTC NOAA

Broomfield / Jeffco, CO, United States (KBJC) 39-55N 105-07W
Sep 16, 2021 - 05:47 PM EDT / 2021.09.16 2147 UTC
Wind: from the NNW (340 degrees) at 10 MPH (9 KT):0
Visibility: 10 mile(s):0
Sky conditions: mostly cloudy
Temperature: 89 F (32 C)
Dew Point: 24 F (-4 C)
Relative Humidity: 9%
Pressure (altimeter): 29.88 in. Hg (1011 hPa)
ob: KBJC 162147Z 34009KT 10SM BKN100 32/M04 A2988
cycle: 22

Station Type Date Time Source
KBJC TAF 2021/09/16 21:09 UTC NOAA

TAF
AMD KBJC 162106Z 1621/1718 36007KT P6SM SCT090 BKN130
FM170100 33011KT P6SM SCT090 BKN130
FM170600 36017G35KT P6SM SCT130
FM170800 02012G20KT P6SM FEW025
FM171100 04011KT P6SM BKN020 OVC030
FM171600 07007KT P6SM FEW040

Example: see airport list